Bw Arctic — 3EDI6 — position and weather

sailwx.info

Track history (hours):
 
Tides and Currents Weather Stations Pressure Air Temp Water Temp Dewpoint Dewpoint Depression Visibility Wind Speed Wind Dir Waves Ship Positions

Bw Arctic

Last reported at 2018-Mar-28 12:33 UTC. Time now 2018-Apr-24 10:18 UTC.
Position S 32°37' E 029°56'.
Warning: this ship's position is 26 days out of date.

Length 292 m; beam 48 m; draft 17.2 m.

Type: Cargo ship. MMSI: 371579000.

Date/timePositionNaut miles runAvg speedWind from/ knotsBaromVisibWave heightAir tempDewpointWater temp
2018-Mar-28 12:33S 32°37' E 029°56'1411.5
2018-Mar-28 11:19S 32°31' E 030°12'311.4
2018-Mar-28 11:00S 32°30' E 030°15'611.5
2018-Mar-28 10:30S 32°27' E 030°22'711.4
2018-Mar-28 09:51S 32°24' E 030°30'711.3
2018-Mar-28 09:14S 32°21' E 030°37'311.3
2018-Mar-28 09:00S 32°20' E 030°40'611.2
2018-Mar-28 08:30S 32°18' E 030°46'1610.9
2018-Mar-28 07:05S 32°11' E 031°03'111.3
2018-Mar-28 07:00S 32°11' E 031°04'  
Track history (hours):
 
Tides and Currents Weather Stations Pressure Air Temp Water Temp Dewpoint Dewpoint Depression Visibility Wind Speed Wind Dir Waves Ship Positions

Bw Arctic

Last reported at 2018-Mar-28 12:33 UTC. Time now 2018-Apr-24 10:18 UTC.
Position S 32°37' E 029°56'.
Warning: this ship's position is 26 days out of date.

Length 292 m; beam 48 m; draft 17.2 m.

Type: Cargo ship. MMSI: 371579000.

Date/timePositionNaut miles runAvg speedWind from/ knotsBaromVisibWave heightAir tempDewpointWater temp
2018-Mar-28 12:33S 32°37' E 029°56'1411.5
2018-Mar-28 11:19S 32°31' E 030°12'311.4
2018-Mar-28 11:00S 32°30' E 030°15'611.5
2018-Mar-28 10:30S 32°27' E 030°22'711.4
2018-Mar-28 09:51S 32°24' E 030°30'711.3
2018-Mar-28 09:14S 32°21' E 030°37'311.3
2018-Mar-28 09:00S 32°20' E 030°40'611.2
2018-Mar-28 08:30S 32°18' E 030°46'1610.9
2018-Mar-28 07:05S 32°11' E 031°03'111.3
2018-Mar-28 07:00S 32°11' E 031°04'  

Dump ship's entire track history